createdAt,value
2017-10-07T00:00:49.851Z,10.20
2017-10-07T00:03:18.258Z,10.20
2017-10-07T00:05:48.111Z,10.20
2017-10-07T00:08:16.479Z,10.20
2017-10-07T00:10:44.882Z,10.20
2017-10-07T00:13:13.234Z,10.20
2017-10-07T00:15:41.629Z,10.20
2017-10-07T00:18:10.159Z,10.20
2017-10-07T00:20:39.274Z,10.20
2017-10-07T00:23:08.386Z,10.20
2017-10-07T00:25:36.786Z,10.20
2017-10-07T00:28:05.202Z,10.10
2017-10-07T00:30:33.563Z,10.10
2017-10-07T00:33:01.965Z,10.20
2017-10-07T00:35:31.615Z,10.10
2017-10-07T00:37:59.987Z,10.10
2017-10-07T00:40:29.264Z,10.10
2017-10-07T00:42:58.390Z,10.20
2017-10-07T00:45:26.744Z,10.20
2017-10-07T00:47:55.911Z,10.20
2017-10-07T00:50:24.290Z,10.10
2017-10-07T00:52:52.906Z,10.20
2017-10-07T00:55:21.409Z,10.20
2017-10-07T00:57:49.787Z,10.10
2017-10-07T01:00:18.218Z,10.10
2017-10-07T01:02:46.763Z,10.00
2017-10-07T01:05:15.161Z,10.00
2017-10-07T01:07:43.536Z,9.90
2017-10-07T01:10:12.083Z,10.00
2017-10-07T01:12:40.459Z,9.90
2017-10-07T01:15:08.823Z,9.90
2017-10-07T01:17:38.418Z,9.90
2017-10-07T01:20:06.823Z,9.90
2017-10-07T01:22:35.197Z,9.90
2017-10-07T01:25:03.636Z,9.90
2017-10-07T01:27:32.049Z,9.80
2017-10-07T01:30:01.218Z,9.80
2017-10-07T01:32:29.686Z,9.80
2017-10-07T01:34:58.080Z,9.80
2017-10-07T01:37:26.661Z,9.80
2017-10-07T01:39:55.362Z,9.80
2017-10-07T01:42:24.787Z,9.80
2017-10-07T01:44:53.162Z,9.80
2017-10-07T01:47:21.554Z,9.80
2017-10-07T01:49:49.895Z,9.80
2017-10-07T01:52:18.243Z,9.80
2017-10-07T01:54:46.748Z,9.80
2017-10-07T01:57:15.104Z,9.80
2017-10-07T01:59:43.459Z,9.80
2017-10-07T02:02:12.147Z,9.80
2017-10-07T02:04:40.492Z,9.80
2017-10-07T02:07:09.636Z,9.80
2017-10-07T02:09:38.048Z,9.80
2017-10-07T02:12:06.390Z,9.80
2017-10-07T02:14:34.724Z,9.90
2017-10-07T02:17:03.868Z,9.90
2017-10-07T02:19:32.291Z,9.90
2017-10-07T02:22:01.448Z,9.90
2017-10-07T02:24:30.023Z,9.90
2017-10-07T02:26:58.387Z,10.00
2017-10-07T02:29:26.747Z,10.00
2017-10-07T02:31:55.192Z,10.00
2017-10-07T02:34:23.550Z,10.00
2017-10-07T02:36:51.922Z,10.00
2017-10-07T02:39:20.722Z,10.00
2017-10-07T02:41:49.129Z,10.00
2017-10-07T02:44:18.256Z,10.00
2017-10-07T02:46:46.652Z,10.00
2017-10-07T02:49:15.036Z,10.00
2017-10-07T02:51:43.378Z,10.00
2017-10-07T02:54:12.084Z,9.90
2017-10-07T02:56:40.642Z,9.90
2017-10-07T02:59:09.007Z,9.90
2017-10-07T03:01:38.150Z,9.90
2017-10-07T03:04:06.514Z,9.90
2017-10-07T03:06:34.874Z,10.00
2017-10-07T03:09:04.322Z,10.00
2017-10-07T03:11:32.686Z,10.00
2017-10-07T03:14:01.084Z,10.00
2017-10-07T03:16:29.508Z,9.90
2017-10-07T03:18:57.879Z,9.90
2017-10-07T03:21:26.251Z,9.90
2017-10-07T03:23:54.926Z,9.80
2017-10-07T03:26:23.270Z,9.80
2017-10-07T03:28:51.622Z,9.80
2017-10-07T03:31:20.041Z,9.80
2017-10-07T03:33:48.391Z,9.80
2017-10-07T03:36:16.736Z,9.80
2017-10-07T03:38:45.900Z,9.80
2017-10-07T03:41:14.605Z,9.80
2017-10-07T03:43:42.962Z,9.80
2017-10-07T03:46:11.375Z,9.80
2017-10-07T03:48:40.474Z,9.70
2017-10-07T03:51:09.579Z,9.60
2017-10-07T03:53:38.880Z,9.70
2017-10-07T03:56:07.994Z,9.60
2017-10-07T03:58:36.399Z,9.60
2017-10-07T04:01:04.864Z,9.70
2017-10-07T04:03:33.217Z,9.60
2017-10-07T04:06:02.320Z,9.60
2017-10-07T04:08:30.735Z,9.60
2017-10-07T04:10:59.087Z,9.60
2017-10-07T04:13:27.425Z,9.60
2017-10-07T04:15:56.599Z,9.60
2017-10-07T04:18:24.962Z,9.60
2017-10-07T04:20:53.297Z,9.60
2017-10-07T04:23:22.859Z,9.60
2017-10-07T04:25:51.215Z,9.60
2017-10-07T04:28:19.569Z,9.60
2017-10-07T04:30:48.093Z,9.60
2017-10-07T04:33:16.450Z,9.60
2017-10-07T04:35:44.863Z,9.60
2017-10-07T04:38:13.415Z,9.60
2017-10-07T04:40:41.797Z,9.60
2017-10-07T04:43:10.580Z,9.60
2017-10-07T04:45:39.292Z,9.60
2017-10-07T04:48:07.669Z,9.60
2017-10-07T04:50:36.033Z,9.60
2017-10-07T04:53:04.450Z,9.60
2017-10-07T04:55:33.574Z,9.60
2017-10-07T04:58:02.107Z,9.60
2017-10-07T05:00:30.757Z,9.70
2017-10-07T05:02:59.180Z,9.70
2017-10-07T05:05:27.561Z,9.60
2017-10-07T05:07:56.053Z,9.60
2017-10-07T05:10:24.426Z,9.60
2017-10-07T05:12:52.839Z,9.60
2017-10-07T05:15:22.172Z,9.60
2017-10-07T05:17:50.540Z,9.60
2017-10-07T05:20:18.896Z,9.60
2017-10-07T05:22:47.758Z,9.60
2017-10-07T05:25:17.120Z,9.70
2017-10-07T05:27:45.488Z,9.60
2017-10-07T05:30:13.897Z,9.70
2017-10-07T05:32:42.284Z,9.70
2017-10-07T05:35:10.629Z,9.60
2017-10-07T05:37:39.017Z,9.60
2017-10-07T05:40:07.377Z,9.60
2017-10-07T05:42:35.778Z,9.60
2017-10-07T05:45:04.484Z,9.50
2017-10-07T05:47:32.855Z,9.60
2017-10-07T05:50:01.262Z,9.60
2017-10-07T05:52:30.709Z,9.60
2017-10-07T05:54:59.841Z,9.60
2017-10-07T05:57:28.252Z,9.60
2017-10-07T05:59:57.527Z,9.60
2017-10-07T06:02:26.261Z,9.60
2017-10-07T06:04:54.625Z,9.60
2017-10-07T06:07:23.238Z,9.70
2017-10-07T06:09:51.622Z,9.70
2017-10-07T06:12:20.012Z,9.70
2017-10-07T06:14:48.606Z,9.70
2017-10-07T06:17:16.974Z,9.80
2017-10-07T06:19:45.327Z,9.90
2017-10-07T06:22:14.126Z,9.90
2017-10-07T06:24:42.515Z,9.90
2017-10-07T06:27:10.967Z,10.00
2017-10-07T06:29:39.377Z,10.00
2017-10-07T06:32:07.865Z,10.00
2017-10-07T06:34:36.240Z,10.00
2017-10-07T06:37:04.857Z,10.10
2017-10-07T06:39:34.031Z,10.10
2017-10-07T06:42:02.463Z,10.10
2017-10-07T06:44:30.874Z,10.20
2017-10-07T06:46:59.836Z,10.20
2017-10-07T06:49:28.204Z,10.20
2017-10-07T06:51:56.680Z,10.30
2017-10-07T06:54:25.077Z,10.30
2017-10-07T06:56:53.432Z,10.30
2017-10-07T06:59:22.274Z,10.30
2017-10-07T07:01:50.655Z,10.30
2017-10-07T07:04:19.124Z,10.30
2017-10-07T07:06:47.596Z,10.30
2017-10-07T07:09:15.945Z,10.40
2017-10-07T07:11:44.316Z,10.30
2017-10-07T07:14:13.778Z,10.50
2017-10-07T07:16:42.233Z,10.40
2017-10-07T07:19:10.639Z,10.60
2017-10-07T07:21:39.235Z,10.80
2017-10-07T07:24:07.608Z,10.80
2017-10-07T07:26:35.998Z,10.90
2017-10-07T07:29:04.750Z,11.10
2017-10-07T07:31:33.119Z,11.00
2017-10-07T07:34:01.497Z,11.20
2017-10-07T07:36:29.937Z,11.20
2017-10-07T07:38:59.062Z,11.20
2017-10-07T07:41:27.451Z,11.20
2017-10-07T07:43:55.858Z,11.10
2017-10-07T07:46:24.216Z,11.10
2017-10-07T07:48:53.023Z,11.10
2017-10-07T07:51:21.793Z,10.90
2017-10-07T07:53:50.137Z,10.90
2017-10-07T07:56:19.251Z,10.80
2017-10-07T07:58:47.706Z,10.80
2017-10-07T08:01:16.819Z,11.00
2017-10-07T08:03:45.204Z,11.00
2017-10-07T08:06:13.955Z,11.00
2017-10-07T08:08:42.328Z,10.90
2017-10-07T08:11:10.717Z,10.90
2017-10-07T08:13:40.195Z,10.80
2017-10-07T08:16:08.571Z,10.80
2017-10-07T08:18:36.980Z,10.80
2017-10-07T08:21:06.248Z,10.90
2017-10-07T08:23:34.656Z,10.80
2017-10-07T08:26:03.794Z,10.80
2017-10-07T08:28:32.405Z,10.80
2017-10-07T08:31:01.043Z,10.80
2017-10-07T08:33:29.395Z,10.90
2017-10-07T08:35:57.780Z,10.80
2017-10-07T08:38:26.890Z,10.80
2017-10-07T08:40:56.005Z,10.90
2017-10-07T08:43:24.531Z,10.90
2017-10-07T08:45:52.884Z,10.90
2017-10-07T08:48:21.279Z,11.10
2017-10-07T08:50:50.293Z,11.20
2017-10-07T08:53:18.649Z,11.30
2017-10-07T08:55:47.088Z,11.30
2017-10-07T08:58:15.585Z,11.40
2017-10-07T09:00:43.949Z,11.30
2017-10-07T09:03:12.321Z,11.30
2017-10-07T09:05:41.028Z,11.30
2017-10-07T09:08:09.456Z,11.30
2017-10-07T09:10:37.906Z,11.40
2017-10-07T09:13:06.314Z,11.40
2017-10-07T09:15:34.689Z,11.30
2017-10-07T09:18:03.058Z,11.20
2017-10-07T09:20:31.619Z,11.30
2017-10-07T09:22:59.991Z,11.20
2017-10-07T09:25:28.347Z,11.10
2017-10-07T09:27:56.776Z,11.00
2017-10-07T09:30:25.156Z,10.90
2017-10-07T09:32:53.746Z,10.90
2017-10-07T09:35:22.140Z,10.90
2017-10-07T09:37:51.313Z,10.90
2017-10-07T09:40:19.727Z,10.90
2017-10-07T09:42:49.121Z,10.80
2017-10-07T09:45:17.506Z,10.80
2017-10-07T09:47:46.653Z,10.80
2017-10-07T09:50:15.262Z,10.80
2017-10-07T09:52:43.906Z,10.80
2017-10-07T09:55:12.274Z,10.80
2017-10-07T09:57:40.899Z,10.70
2017-10-07T10:00:09.283Z,10.80
2017-10-07T10:02:37.684Z,10.80
2017-10-07T10:05:06.219Z,10.80
2017-10-07T10:07:34.589Z,10.80
2017-10-07T10:10:03.046Z,10.80
2017-10-07T10:12:32.331Z,10.80
2017-10-07T10:15:01.536Z,10.90
2017-10-07T10:17:30.671Z,10.90
2017-10-07T10:19:59.215Z,10.90
2017-10-07T10:22:28.391Z,10.80
2017-10-07T10:24:56.768Z,10.80
2017-10-07T10:27:25.576Z,10.80
2017-10-07T10:29:54.731Z,10.80
2017-10-07T10:32:23.099Z,10.80
2017-10-07T10:34:52.028Z,10.80
2017-10-07T10:37:20.396Z,10.80
2017-10-07T10:39:48.765Z,10.80
2017-10-07T10:42:17.340Z,10.70
2017-10-07T10:44:45.769Z,10.80
2017-10-07T10:47:14.952Z,10.80
2017-10-07T10:49:44.132Z,10.80
2017-10-07T10:52:13.341Z,10.90
2017-10-07T10:54:41.871Z,10.80
2017-10-07T10:57:10.267Z,10.80
2017-10-07T10:59:38.672Z,10.80
2017-10-07T11:02:07.125Z,10.90
2017-10-07T11:04:35.526Z,11.00
2017-10-07T11:07:03.913Z,11.10
2017-10-07T11:09:32.274Z,11.20
2017-10-07T11:12:00.915Z,11.10
2017-10-07T11:14:29.279Z,11.20
2017-10-07T11:16:59.099Z,11.20
2017-10-07T11:19:28.556Z,11.30
2017-10-07T11:21:56.970Z,11.30
2017-10-07T11:24:26.143Z,11.40
2017-10-07T11:26:54.826Z,11.40
2017-10-07T11:29:23.230Z,11.30
2017-10-07T11:31:51.604Z,11.30
2017-10-07T11:34:21.087Z,11.30
2017-10-07T11:36:49.507Z,11.30
2017-10-07T11:39:17.928Z,11.30
2017-10-07T11:41:46.536Z,11.30
2017-10-07T11:44:14.904Z,11.40
2017-10-07T11:46:43.310Z,11.40
2017-10-07T11:49:12.681Z,11.50
2017-10-07T11:51:41.069Z,11.50
2017-10-07T11:54:09.573Z,11.50
2017-10-07T11:56:39.170Z,11.50
2017-10-07T11:59:07.560Z,11.50
2017-10-07T12:01:36.010Z,11.40
2017-10-07T12:04:04.474Z,11.40
2017-10-07T12:06:32.871Z,11.40
2017-10-07T12:09:01.237Z,11.50
2017-10-07T12:11:29.736Z,11.50
2017-10-07T12:13:58.167Z,11.40
2017-10-07T12:16:26.635Z,11.30
2017-10-07T12:18:55.044Z,11.30
2017-10-07T12:21:23.405Z,11.20
2017-10-07T12:23:51.784Z,11.20
2017-10-07T12:26:20.457Z,11.20
2017-10-07T12:28:49.593Z,11.30
2017-10-07T12:31:17.992Z,11.30
2017-10-07T12:33:46.792Z,11.30
2017-10-07T12:36:15.253Z,11.30
2017-10-07T12:38:43.857Z,11.30
2017-10-07T12:41:12.463Z,11.30
2017-10-07T12:43:41.657Z,11.30
2017-10-07T12:46:10.834Z,11.40
2017-10-07T12:48:39.559Z,11.40
2017-10-07T12:51:07.990Z,11.40
2017-10-07T12:53:36.384Z,11.40
2017-10-07T12:56:05.712Z,11.50
2017-10-07T12:58:35.885Z,11.50
2017-10-07T13:01:04.264Z,11.50
2017-10-07T13:03:32.671Z,11.40
2017-10-07T13:06:01.900Z,11.40
2017-10-07T13:08:30.268Z,11.40
2017-10-07T13:10:58.693Z,11.30
2017-10-07T13:13:27.131Z,11.30
2017-10-07T13:15:55.857Z,11.20
2017-10-07T13:18:24.286Z,11.10
2017-10-07T13:20:52.700Z,11.00
2017-10-07T13:23:21.078Z,10.90
2017-10-07T13:25:49.702Z,10.90
2017-10-07T13:28:18.103Z,10.90
2017-10-07T13:30:47.237Z,10.80
2017-10-07T13:33:15.772Z,10.80
2017-10-07T13:35:44.153Z,10.70
2017-10-07T13:38:13.304Z,10.70
2017-10-07T13:40:42.127Z,10.60
2017-10-07T13:43:11.412Z,10.60
2017-10-07T13:45:39.820Z,10.60
2017-10-07T13:48:08.236Z,10.60
2017-10-07T13:50:36.620Z,10.60
2017-10-07T13:53:04.990Z,10.50
2017-10-07T13:55:33.557Z,10.40
2017-10-07T13:58:02.717Z,10.30
2017-10-07T14:00:31.477Z,10.20
2017-10-07T14:03:00.285Z,10.30
2017-10-07T14:05:28.702Z,10.30
2017-10-07T14:07:57.089Z,10.30
2017-10-07T14:10:25.524Z,10.30
2017-10-07T14:12:53.883Z,10.30
2017-10-07T14:15:23.026Z,10.20
2017-10-07T14:17:51.522Z,10.20
2017-10-07T14:20:20.630Z,10.20
2017-10-07T14:22:49.030Z,10.20
2017-10-07T14:25:17.539Z,10.20
2017-10-07T14:27:45.969Z,10.20
2017-10-07T14:30:14.386Z,10.20
2017-10-07T14:32:42.814Z,10.20
2017-10-07T14:35:11.956Z,10.20
2017-10-07T14:37:40.327Z,10.20
2017-10-07T14:40:08.728Z,10.10
2017-10-07T14:42:37.167Z,10.20
2017-10-07T14:45:05.581Z,10.10
2017-10-07T14:47:34.411Z,10.10
2017-10-07T14:50:03.591Z,10.10
2017-10-07T14:52:31.953Z,10.10
2017-10-07T14:55:01.565Z,10.00
2017-10-07T14:57:29.957Z,10.00
2017-10-07T14:59:58.411Z,10.00
2017-10-07T15:02:27.408Z,10.00
2017-10-07T15:04:55.784Z,10.00
2017-10-07T15:07:24.171Z,10.00
2017-10-07T15:09:53.545Z,10.00
2017-10-07T15:12:22.008Z,10.00
2017-10-07T15:14:50.386Z,10.00
2017-10-07T15:17:18.941Z,10.00
2017-10-07T15:19:48.129Z,10.00
2017-10-07T15:22:16.607Z,9.90
2017-10-07T15:24:45.189Z,9.90
2017-10-07T15:27:13.554Z,9.90
2017-10-07T15:29:41.992Z,9.80
2017-10-07T15:32:10.506Z,9.80
2017-10-07T15:34:38.885Z,9.70
2017-10-07T15:37:07.269Z,9.70
2017-10-07T15:39:35.749Z,9.60
2017-10-07T15:42:04.124Z,9.50
2017-10-07T15:44:32.771Z,9.50
2017-10-07T15:47:01.204Z,9.50
2017-10-07T15:49:29.554Z,9.50
2017-10-07T15:51:57.959Z,9.50
2017-10-07T15:54:30.113Z,9.50
2017-10-07T15:56:58.540Z,9.50
2017-10-07T15:59:27.693Z,9.50
2017-10-07T16:01:56.587Z,9.50
2017-10-07T16:04:25.439Z,9.50
2017-10-07T16:06:53.900Z,9.60
2017-10-07T16:09:22.372Z,9.50
2017-10-07T16:11:51.538Z,9.40
2017-10-07T16:14:19.922Z,9.40
2017-10-07T16:16:48.360Z,9.30
2017-10-07T16:19:16.760Z,9.20
2017-10-07T16:21:45.285Z,9.20
2017-10-07T16:24:14.785Z,9.10
2017-10-07T16:26:43.940Z,9.00
2017-10-07T16:29:13.078Z,9.00
2017-10-07T16:31:41.647Z,9.00
2017-10-07T16:34:10.072Z,8.90
2017-10-07T16:36:38.455Z,8.90
2017-10-07T16:39:07.067Z,8.80
2017-10-07T16:41:35.464Z,8.80
2017-10-07T16:44:03.824Z,8.80
2017-10-07T16:46:32.728Z,8.70
2017-10-07T16:49:01.141Z,8.70
2017-10-07T16:51:30.550Z,8.80
2017-10-07T16:53:59.312Z,8.70
2017-10-07T16:56:27.713Z,8.70
2017-10-07T16:58:56.912Z,8.70
2017-10-07T17:01:26.246Z,8.70
2017-10-07T17:03:54.648Z,8.70
2017-10-07T17:06:23.279Z,8.70
2017-10-07T17:08:52.491Z,8.70
2017-10-07T17:11:21.669Z,8.70
2017-10-07T17:13:50.794Z,8.70
2017-10-07T17:16:19.411Z,8.70
2017-10-07T17:18:47.758Z,8.80
2017-10-07T17:21:16.135Z,8.70
2017-10-07T17:23:45.901Z,8.80
2017-10-07T17:26:14.274Z,8.80
2017-10-07T17:28:42.651Z,8.80
2017-10-07T17:31:11.188Z,8.80
2017-10-07T17:33:39.564Z,8.80
2017-10-07T17:36:07.970Z,8.80
2017-10-07T17:38:36.501Z,8.80
2017-10-07T17:41:05.616Z,8.70
2017-10-07T17:43:33.988Z,8.70
2017-10-07T17:46:02.397Z,8.70
2017-10-07T17:48:32.078Z,8.70
2017-10-07T17:51:00.487Z,8.70
2017-10-07T17:53:29.177Z,8.70
2017-10-07T17:55:57.542Z,8.70
2017-10-07T17:58:25.926Z,8.70
2017-10-07T18:00:54.523Z,8.70
2017-10-07T18:03:22.881Z,8.70
2017-10-07T18:05:51.235Z,8.80
2017-10-07T18:08:20.153Z,8.80
2017-10-07T18:10:48.498Z,8.80
2017-10-07T18:13:17.674Z,8.80
2017-10-07T18:15:46.470Z,8.80
2017-10-07T18:18:14.842Z,8.80
2017-10-07T18:20:43.201Z,8.80
2017-10-07T18:23:11.706Z,8.80
2017-10-07T18:25:41.150Z,8.80
2017-10-07T18:28:09.513Z,8.80
2017-10-07T18:30:38.997Z,8.90
2017-10-07T18:33:08.154Z,8.90
2017-10-07T18:35:36.537Z,8.80
2017-10-07T18:38:05.316Z,8.90
2017-10-07T18:40:33.708Z,8.90
2017-10-07T18:43:03.606Z,8.90
2017-10-07T18:45:32.308Z,8.90
2017-10-07T18:48:00.690Z,8.90
2017-10-07T18:50:29.232Z,9.00
2017-10-07T18:52:57.670Z,9.00
2017-10-07T18:55:26.076Z,9.00
2017-10-07T18:57:54.416Z,9.00
2017-10-07T19:00:22.897Z,9.00
2017-10-07T19:02:51.271Z,9.00
2017-10-07T19:05:19.639Z,9.10
2017-10-07T19:07:48.026Z,9.10
2017-10-07T19:10:16.672Z,9.10
2017-10-07T19:12:45.033Z,9.10
2017-10-07T19:15:13.806Z,9.20
2017-10-07T19:17:42.939Z,9.10
2017-10-07T19:20:11.297Z,9.10
2017-10-07T19:22:39.928Z,9.20
2017-10-07T19:25:08.280Z,9.20
2017-10-07T19:27:36.658Z,9.20
2017-10-07T19:30:05.327Z,9.20
2017-10-07T19:32:33.679Z,9.20
2017-10-07T19:35:02.045Z,9.20
2017-10-07T19:37:30.594Z,9.20
2017-10-07T19:39:58.966Z,9.20
2017-10-07T19:42:27.342Z,9.20
2017-10-07T19:44:55.831Z,9.20
2017-10-07T19:47:24.200Z,9.20
2017-10-07T19:49:52.561Z,9.30
2017-10-07T19:52:21.584Z,9.30
2017-10-07T19:54:49.923Z,9.30
2017-10-07T19:57:19.028Z,9.30
2017-10-07T19:59:47.786Z,9.30
2017-10-07T20:02:16.914Z,9.30
2017-10-07T20:04:45.287Z,9.30
2017-10-07T20:07:13.674Z,9.30
2017-10-07T20:09:42.049Z,9.20
2017-10-07T20:12:10.793Z,9.20
2017-10-07T20:14:39.358Z,9.20
2017-10-07T20:17:07.733Z,9.10
2017-10-07T20:19:36.088Z,9.10
2017-10-07T20:22:06.376Z,9.10
2017-10-07T20:24:35.505Z,9.00
2017-10-07T20:27:03.861Z,9.00
2017-10-07T20:29:33.206Z,9.10
2017-10-07T20:32:01.567Z,9.00
2017-10-07T20:34:29.912Z,9.00
2017-10-07T20:36:59.094Z,9.00
2017-10-07T20:39:27.465Z,9.00
2017-10-07T20:41:55.850Z,9.00
2017-10-07T20:44:24.723Z,9.00
2017-10-07T20:46:53.084Z,9.00
2017-10-07T20:49:21.446Z,9.00
2017-10-07T20:51:50.052Z,9.00
2017-10-07T20:54:18.552Z,9.00
2017-10-07T20:56:46.948Z,8.90
2017-10-07T20:59:15.465Z,8.90
2017-10-07T21:01:43.830Z,9.00
2017-10-07T21:04:12.179Z,8.90
2017-10-07T21:06:40.987Z,9.00
2017-10-07T21:09:10.095Z,9.00
2017-10-07T21:11:39.215Z,9.00
2017-10-07T21:14:08.016Z,9.00
2017-10-07T21:16:36.351Z,9.00
2017-10-07T21:19:05.472Z,9.10
2017-10-07T21:21:33.909Z,9.00
2017-10-07T21:24:02.300Z,9.10
2017-10-07T21:26:31.414Z,9.10
2017-10-07T21:29:00.042Z,9.10
2017-10-07T21:31:28.783Z,9.10
2017-10-07T21:33:57.215Z,9.10
2017-10-07T21:36:25.980Z,9.10
2017-10-07T21:38:55.118Z,9.20
2017-10-07T21:41:23.486Z,9.20
2017-10-07T21:43:52.034Z,9.20
2017-10-07T21:46:20.383Z,9.20
2017-10-07T21:48:48.725Z,9.20
2017-10-07T21:51:17.123Z,9.20
2017-10-07T21:53:46.282Z,9.20
2017-10-07T21:56:14.758Z,9.20
2017-10-07T21:58:43.149Z,9.20
2017-10-07T22:01:12.277Z,9.30
2017-10-07T22:03:41.395Z,9.30
2017-10-07T22:06:09.797Z,9.30
2017-10-07T22:08:38.159Z,9.30
2017-10-07T22:11:06.505Z,9.30
2017-10-07T22:13:35.745Z,9.40
2017-10-07T22:16:04.388Z,9.40
2017-10-07T22:18:33.500Z,9.40
2017-10-07T22:21:02.238Z,9.40
2017-10-07T22:23:30.584Z,9.40
2017-10-07T22:25:58.924Z,9.40
2017-10-07T22:28:28.370Z,9.40
2017-10-07T22:30:56.707Z,9.40
2017-10-07T22:33:26.057Z,9.40
2017-10-07T22:35:54.432Z,9.40
2017-10-07T22:38:22.772Z,9.40
2017-10-07T22:40:51.928Z,9.40
2017-10-07T22:43:20.331Z,9.40
2017-10-07T22:45:48.685Z,9.40
2017-10-07T22:48:17.075Z,9.40
2017-10-07T22:50:45.463Z,9.40
2017-10-07T22:53:13.823Z,9.40
2017-10-07T22:55:42.179Z,9.40
2017-10-07T22:58:10.787Z,9.40
2017-10-07T23:00:40.029Z,9.40
2017-10-07T23:03:08.395Z,9.40
2017-10-07T23:05:37.757Z,9.40
2017-10-07T23:08:06.098Z,9.40
2017-10-07T23:10:34.450Z,9.40
2017-10-07T23:13:03.592Z,9.40
2017-10-07T23:15:31.944Z,9.40
2017-10-07T23:18:00.700Z,9.40
2017-10-07T23:20:29.127Z,9.40
2017-10-07T23:22:57.510Z,9.40
2017-10-07T23:25:25.858Z,9.40
2017-10-07T23:27:55.207Z,9.40
2017-10-07T23:30:23.551Z,9.40
2017-10-07T23:32:51.891Z,9.40
2017-10-07T23:35:20.321Z,9.40
2017-10-07T23:37:48.680Z,9.40
2017-10-07T23:40:17.039Z,9.40
2017-10-07T23:42:46.207Z,9.40
2017-10-07T23:45:14.553Z,9.40
2017-10-07T23:47:42.909Z,9.40
2017-10-07T23:50:12.189Z,9.40
2017-10-07T23:52:40.536Z,9.40
2017-10-07T23:55:08.889Z,9.40
2017-10-07T23:57:37.433Z,9.40
